createdAt,value
2023-04-09T00:01:52.096Z,98.25
2023-04-09T00:04:25.221Z,98.12
2023-04-09T00:06:59.601Z,98.64
2023-04-09T00:09:32.959Z,98.03
2023-04-09T00:12:06.258Z,97.93
2023-04-09T00:14:39.297Z,98.17
2023-04-09T00:17:12.278Z,97.29
2023-04-09T00:19:45.454Z,98.52
2023-04-09T00:22:19.811Z,98.61
2023-04-09T00:24:52.888Z,98.52
2023-04-09T00:27:25.941Z,98.70
2023-04-09T00:29:59.000Z,98.90
2023-04-09T00:32:32.156Z,98.40
2023-04-09T00:35:05.892Z,97.72
2023-04-09T00:37:40.415Z,98.24
2023-04-09T00:40:13.817Z,98.77
2023-04-09T00:42:46.912Z,97.68
2023-04-09T00:45:19.953Z,98.12
2023-04-09T00:47:53.449Z,97.45
2023-04-09T00:50:26.633Z,97.85
2023-04-09T00:53:01.289Z,98.13
2023-04-09T00:55:35.200Z,98.19
2023-04-09T00:58:08.427Z,98.53
2023-04-09T01:00:41.648Z,98.84
2023-04-09T01:03:15.245Z,98.39
2023-04-09T01:05:55.780Z,99.19
2023-04-09T01:08:40.358Z,99.06
2023-04-09T01:11:29.137Z,99.80
2023-04-09T01:14:12.327Z,100.00
2023-04-09T01:16:49.359Z,99.36
2023-04-09T01:19:38.592Z,99.34
2023-04-09T01:22:25.984Z,98.91
2023-04-09T01:25:10.721Z,99.74
2023-04-09T01:27:56.501Z,99.60
2023-04-09T01:30:31.815Z,99.34
2023-04-09T01:33:05.974Z,99.94
2023-04-09T01:35:39.588Z,99.61
2023-04-09T01:38:14.029Z,100.00
2023-04-09T01:40:47.416Z,99.64
2023-04-09T01:43:21.322Z,99.72
2023-04-09T01:45:55.977Z,99.88
2023-04-09T01:48:31.420Z,99.54
2023-04-09T01:51:05.068Z,99.25
2023-04-09T01:53:38.219Z,99.48
2023-04-09T01:56:11.289Z,100.00
2023-04-09T01:58:44.278Z,100.00
2023-04-09T02:01:26.216Z,100.00
2023-04-09T02:04:04.470Z,100.00
2023-04-09T02:06:43.513Z,100.00
2023-04-09T02:09:20.018Z,100.00
2023-04-09T02:11:54.593Z,100.00
2023-04-09T02:14:30.292Z,100.00
2023-04-09T02:17:04.780Z,100.00
2023-04-09T02:19:42.230Z,100.00
2023-04-09T02:22:16.943Z,99.60
2023-04-09T02:24:50.038Z,99.64
2023-04-09T02:27:23.053Z,100.00
2023-04-09T02:29:56.048Z,100.00
2023-04-09T02:32:30.465Z,100.00
2023-04-09T02:35:03.607Z,100.00
2023-04-09T02:37:36.531Z,100.00
2023-04-09T02:40:11.268Z,100.00
2023-04-09T02:42:44.202Z,100.00
2023-04-09T02:45:17.340Z,100.00
2023-04-09T02:47:51.668Z,100.00
2023-04-09T02:50:24.690Z,100.00
2023-04-09T02:52:57.837Z,100.00
2023-04-09T02:55:31.020Z,100.00
2023-04-09T02:58:03.964Z,100.00
2023-04-09T03:00:36.898Z,100.00
2023-04-09T03:03:11.367Z,100.00
2023-04-09T03:05:44.466Z,100.00
2023-04-09T03:08:17.411Z,100.00
2023-04-09T03:10:50.469Z,100.00
2023-04-09T03:13:23.457Z,100.00
2023-04-09T03:15:56.426Z,100.00
2023-04-09T03:18:30.748Z,100.00
2023-04-09T03:21:07.519Z,100.00
2023-04-09T03:23:40.628Z,100.00
2023-04-09T03:26:13.614Z,100.00
2023-04-09T03:28:47.074Z,100.00
2023-04-09T03:31:20.151Z,100.00
2023-04-09T03:33:54.443Z,100.00
2023-04-09T03:36:27.909Z,100.00
2023-04-09T03:39:01.538Z,100.00
2023-04-09T03:41:34.614Z,100.00
2023-04-09T03:44:08.922Z,100.00
2023-04-09T03:46:41.940Z,100.00
2023-04-09T03:49:16.303Z,100.00
2023-04-09T03:51:49.290Z,100.00
2023-04-09T03:54:22.258Z,100.00
2023-04-09T03:56:56.260Z,100.00
2023-04-09T03:59:29.242Z,100.00
2023-04-09T04:02:02.289Z,100.00
2023-04-09T04:04:36.718Z,100.00
2023-04-09T04:07:09.764Z,100.00
2023-04-09T04:09:42.723Z,100.00
2023-04-09T04:12:15.777Z,100.00
2023-04-09T04:14:48.762Z,100.00
2023-04-09T04:17:21.709Z,100.00
2023-04-09T04:19:56.457Z,100.00
2023-04-09T04:22:29.429Z,100.00
2023-04-09T04:25:02.957Z,100.00
2023-04-09T04:27:35.981Z,100.00
2023-04-09T04:30:10.347Z,100.00
2023-04-09T04:32:43.368Z,100.00
2023-04-09T04:35:18.083Z,100.00
2023-04-09T04:37:51.920Z,100.00
2023-04-09T04:40:25.176Z,100.00
2023-04-09T04:42:58.206Z,100.00
2023-04-09T04:45:31.197Z,100.00
2023-04-09T04:48:04.281Z,100.00
2023-04-09T04:50:38.612Z,100.00
2023-04-09T04:53:11.713Z,100.00
2023-04-09T04:55:44.715Z,100.00
2023-04-09T04:58:17.870Z,100.00
2023-04-09T05:00:50.853Z,100.00
2023-04-09T05:03:25.931Z,100.00
2023-04-09T05:06:01.734Z,100.00
2023-04-09T05:08:34.684Z,100.00
2023-04-09T05:11:07.739Z,100.00
2023-04-09T05:13:40.649Z,100.00
2023-04-09T05:16:18.573Z,100.00
2023-04-09T05:18:51.771Z,100.00
2023-04-09T05:21:27.557Z,100.00
2023-04-09T05:24:00.548Z,100.00
2023-04-09T05:26:33.629Z,100.00
2023-04-09T05:29:06.593Z,100.00
2023-04-09T05:31:40.489Z,100.00
2023-04-09T05:34:13.473Z,100.00
2023-04-09T05:36:47.744Z,100.00
2023-04-09T05:39:20.778Z,100.00
2023-04-09T05:41:54.027Z,100.00
2023-04-09T05:44:26.978Z,100.00
2023-04-09T05:46:59.904Z,98.04
2023-04-09T05:49:32.882Z,97.16
2023-04-09T05:52:07.477Z,94.07
2023-04-09T05:54:41.064Z,92.33
2023-04-09T05:57:14.063Z,91.51
2023-04-09T05:59:46.984Z,88.57
2023-04-09T06:02:20.085Z,86.84
2023-04-09T06:04:53.246Z,86.13
2023-04-09T06:07:27.602Z,82.93
2023-04-09T06:10:00.779Z,80.21
2023-04-09T06:12:35.707Z,79.35
2023-04-09T06:15:09.478Z,77.90
2023-04-09T06:17:42.465Z,73.52
2023-04-09T06:20:15.586Z,72.76
2023-04-09T06:22:50.042Z,71.24
2023-04-09T06:25:23.635Z,71.62
2023-04-09T06:27:56.866Z,70.39
2023-04-09T06:30:31.805Z,70.21
2023-04-09T06:33:04.901Z,68.07
2023-04-09T06:35:38.102Z,67.63
2023-04-09T06:38:12.414Z,66.79
2023-04-09T06:40:45.636Z,65.99
2023-04-09T06:43:18.590Z,64.36
2023-04-09T06:45:51.633Z,65.77
2023-04-09T06:48:24.571Z,66.42
2023-04-09T06:50:57.522Z,65.79
2023-04-09T06:53:31.878Z,64.50
2023-04-09T06:56:05.497Z,65.22
2023-04-09T06:58:38.417Z,64.77
2023-04-09T07:01:11.493Z,62.96
2023-04-09T07:03:44.602Z,62.91
2023-04-09T07:06:17.600Z,62.72
2023-04-09T07:08:52.236Z,58.75
2023-04-09T07:11:25.509Z,56.64
2023-04-09T07:13:58.444Z,58.16
2023-04-09T07:16:31.457Z,56.16
2023-04-09T07:19:06.205Z,56.16
2023-04-09T07:21:39.275Z,55.55
2023-04-09T07:24:13.533Z,54.09
2023-04-09T07:26:46.681Z,53.79
2023-04-09T07:29:20.707Z,52.23
2023-04-09T07:31:53.780Z,52.60
2023-04-09T07:34:27.372Z,53.31
2023-04-09T07:37:00.351Z,54.71
2023-04-09T07:39:34.794Z,55.96
2023-04-09T07:42:07.902Z,58.68
2023-04-09T07:44:41.075Z,61.24
2023-04-09T07:47:14.189Z,59.75
2023-04-09T07:49:47.141Z,61.14
2023-04-09T07:52:20.441Z,59.04
2023-04-09T07:54:54.784Z,58.37
2023-04-09T07:57:27.786Z,55.38
2023-04-09T08:00:01.517Z,57.51
2023-04-09T08:02:34.541Z,57.65
2023-04-09T08:05:08.989Z,55.60
2023-04-09T08:07:42.000Z,55.75
2023-04-09T08:10:17.075Z,57.14
2023-04-09T08:12:50.834Z,56.02
2023-04-09T08:15:23.870Z,54.73
2023-04-09T08:17:57.155Z,53.46
2023-04-09T08:20:30.482Z,52.97
2023-04-09T08:23:03.469Z,52.09
2023-04-09T08:25:37.798Z,51.95
2023-04-09T08:28:10.762Z,52.29
2023-04-09T08:30:44.136Z,50.36
2023-04-09T08:33:17.830Z,49.68
2023-04-09T08:35:50.820Z,50.68
2023-04-09T08:38:23.937Z,50.23
2023-04-09T08:40:58.293Z,50.53
2023-04-09T08:43:52.625Z,51.61
2023-04-09T08:46:27.198Z,50.67
2023-04-09T08:49:00.224Z,52.01
2023-04-09T08:51:33.175Z,51.46
2023-04-09T08:54:06.476Z,51.09
2023-04-09T08:56:40.806Z,51.81
2023-04-09T08:59:18.107Z,51.29
2023-04-09T09:01:54.524Z,50.63
2023-04-09T09:04:46.169Z,51.95
2023-04-09T09:07:19.215Z,51.44
2023-04-09T09:09:54.222Z,49.79
2023-04-09T09:12:38.186Z,50.31
2023-04-09T09:15:28.348Z,47.64
2023-04-09T09:18:01.862Z,48.57
2023-04-09T09:20:35.104Z,49.96
2023-04-09T09:23:08.750Z,52.59
2023-04-09T09:25:43.283Z,54.07
2023-04-09T09:28:17.636Z,52.73
2023-04-09T09:30:50.627Z,48.17
2023-04-09T09:33:23.646Z,50.75
2023-04-09T09:35:57.872Z,50.50
2023-04-09T09:38:32.120Z,49.33
2023-04-09T09:41:18.533Z,48.74
2023-04-09T09:43:53.414Z,49.55
2023-04-09T09:46:28.574Z,50.30
2023-04-09T09:49:01.595Z,49.41
2023-04-09T09:51:38.166Z,50.61
2023-04-09T09:54:13.299Z,49.31
2023-04-09T09:56:47.626Z,50.48
2023-04-09T09:59:24.136Z,52.14
2023-04-09T10:02:02.265Z,50.36
2023-04-09T10:04:36.642Z,50.64
2023-04-09T10:07:10.169Z,52.74
2023-04-09T10:09:47.404Z,52.03
2023-04-09T10:12:24.602Z,50.51
2023-04-09T10:15:04.294Z,49.70
2023-04-09T10:17:38.765Z,47.41
2023-04-09T10:20:17.188Z,50.39
2023-04-09T10:22:53.614Z,48.32
2023-04-09T10:25:27.001Z,47.92
2023-04-09T10:28:01.477Z,44.89
2023-04-09T10:30:37.340Z,44.68
2023-04-09T10:33:16.592Z,41.14
2023-04-09T10:35:49.720Z,40.69
2023-04-09T10:38:37.356Z,40.94
2023-04-09T10:41:23.166Z,39.25
2023-04-09T10:43:56.454Z,39.78
2023-04-09T10:46:37.046Z,39.76
2023-04-09T10:49:13.525Z,40.61
2023-04-09T10:51:52.742Z,41.34
2023-04-09T10:54:45.881Z,42.63
2023-04-09T10:57:21.764Z,42.85
2023-04-09T10:59:56.268Z,43.53
2023-04-09T11:03:14.177Z,42.23
2023-04-09T11:05:50.611Z,41.57
2023-04-09T11:08:23.873Z,41.64
2023-04-09T11:10:58.471Z,40.49
2023-04-09T11:13:34.079Z,41.61
2023-04-09T11:16:07.766Z,42.10
2023-04-09T11:18:42.456Z,42.67
2023-04-09T11:21:16.282Z,42.87
2023-04-09T11:23:53.551Z,42.46
2023-04-09T11:26:36.303Z,42.87
2023-04-09T11:29:10.102Z,40.19
2023-04-09T11:31:46.963Z,39.59
2023-04-09T11:34:21.281Z,41.21
2023-04-09T11:36:54.250Z,40.87
2023-04-09T11:39:27.434Z,39.95
2023-04-09T11:42:00.778Z,39.41
2023-04-09T11:44:33.737Z,40.65
2023-04-09T11:47:07.256Z,41.70
2023-04-09T11:49:42.269Z,42.11
2023-04-09T11:52:16.518Z,42.03
2023-04-09T11:54:50.462Z,42.41
2023-04-09T11:57:23.381Z,43.63
2023-04-09T11:59:56.437Z,43.27
2023-04-09T12:02:31.430Z,41.79
2023-04-09T12:05:07.130Z,41.51
2023-04-09T12:07:42.336Z,40.44
2023-04-09T12:10:19.854Z,39.99
2023-04-09T12:12:52.810Z,39.17
2023-04-09T12:15:27.164Z,39.44
2023-04-09T12:18:00.776Z,39.45
2023-04-09T12:20:39.406Z,38.46
2023-04-09T12:23:14.029Z,38.69
2023-04-09T12:25:47.697Z,37.83
2023-04-09T12:28:21.031Z,37.96
2023-04-09T12:30:54.458Z,38.75
2023-04-09T12:33:27.467Z,39.46
2023-04-09T12:36:01.917Z,38.64
2023-04-09T12:38:34.954Z,38.62
2023-04-09T12:41:08.067Z,38.21
2023-04-09T12:43:42.757Z,38.66
2023-04-09T12:46:17.460Z,38.97
2023-04-09T12:48:50.455Z,38.19
2023-04-09T12:51:25.383Z,37.78
2023-04-09T12:53:58.373Z,38.67
2023-04-09T12:56:31.292Z,38.74
2023-04-09T12:59:04.247Z,38.79
2023-04-09T13:01:37.329Z,38.97
2023-04-09T13:04:10.939Z,38.46
2023-04-09T13:06:45.345Z,40.05
2023-04-09T13:09:18.330Z,40.53
2023-04-09T13:11:51.573Z,39.36
2023-04-09T13:14:25.875Z,39.26
2023-04-09T13:16:59.010Z,39.20
2023-04-09T13:19:32.334Z,38.79
2023-04-09T13:22:08.712Z,39.22
2023-04-09T13:24:43.181Z,39.82
2023-04-09T13:27:16.467Z,38.73
2023-04-09T13:29:49.454Z,38.33
2023-04-09T13:32:24.141Z,38.29
2023-04-09T13:34:57.974Z,38.03
2023-04-09T13:37:32.319Z,38.27
2023-04-09T13:40:06.086Z,37.55
2023-04-09T13:42:39.062Z,38.98
2023-04-09T13:45:12.341Z,36.93
2023-04-09T13:47:45.377Z,36.73
2023-04-09T13:50:18.735Z,36.05
2023-04-09T13:52:53.009Z,37.32
2023-04-09T13:55:26.212Z,37.39
2023-04-09T13:57:59.180Z,38.35
2023-04-09T14:00:32.590Z,38.97
2023-04-09T14:03:05.967Z,39.27
2023-04-09T14:05:38.995Z,39.38
2023-04-09T14:08:13.295Z,38.37
2023-04-09T14:10:46.282Z,39.63
2023-04-09T14:13:19.217Z,39.92
2023-04-09T14:15:52.216Z,38.42
2023-04-09T14:18:25.248Z,37.73
2023-04-09T14:20:58.204Z,37.77
2023-04-09T14:23:32.501Z,37.34
2023-04-09T14:26:08.171Z,38.26
2023-04-09T14:28:41.452Z,38.32
2023-04-09T14:31:14.935Z,36.78
2023-04-09T14:33:47.968Z,37.26
2023-04-09T14:36:21.422Z,37.36
2023-04-09T14:38:57.804Z,37.68
2023-04-09T14:41:34.068Z,37.79
2023-04-09T14:44:07.024Z,37.49
2023-04-09T14:46:40.006Z,36.89
2023-04-09T14:49:13.151Z,37.79
2023-04-09T14:51:46.159Z,37.07
2023-04-09T14:54:20.463Z,36.41
2023-04-09T14:56:53.396Z,36.43
2023-04-09T14:59:26.923Z,38.73
2023-04-09T15:01:59.963Z,37.17
2023-04-09T15:04:33.018Z,37.42
2023-04-09T15:07:06.806Z,37.03
2023-04-09T15:09:41.586Z,37.07
2023-04-09T15:12:14.544Z,37.20
2023-04-09T15:14:47.574Z,36.31
2023-04-09T15:17:20.624Z,36.32
2023-04-09T15:19:54.579Z,36.17
2023-04-09T15:22:27.793Z,36.15
2023-04-09T15:25:02.089Z,36.87
2023-04-09T15:27:35.105Z,36.81
2023-04-09T15:30:09.718Z,38.70
2023-04-09T15:32:42.763Z,37.42
2023-04-09T15:35:20.560Z,38.49
2023-04-09T15:37:53.899Z,38.05
2023-04-09T15:40:28.999Z,37.35
2023-04-09T15:43:01.980Z,36.40
2023-04-09T15:45:34.963Z,37.37
2023-04-09T15:48:08.126Z,37.06
2023-04-09T15:50:41.134Z,36.94
2023-04-09T15:53:14.951Z,36.72
2023-04-09T15:55:49.411Z,37.80
2023-04-09T15:58:22.404Z,37.33
2023-04-09T16:00:55.432Z,37.14
2023-04-09T16:03:28.411Z,37.70
2023-04-09T16:06:07.325Z,38.28
2023-04-09T16:08:40.678Z,37.57
2023-04-09T16:11:15.539Z,38.15
2023-04-09T16:13:48.512Z,38.73
2023-04-09T16:16:21.755Z,38.07
2023-04-09T16:18:55.024Z,38.34
2023-04-09T16:21:29.049Z,37.89
2023-04-09T16:24:02.284Z,36.70
2023-04-09T16:26:36.615Z,37.71
2023-04-09T16:29:09.620Z,38.67
2023-04-09T16:31:42.896Z,38.23
2023-04-09T16:34:15.917Z,38.41
2023-04-09T16:36:50.648Z,38.38
2023-04-09T16:39:23.605Z,38.31
2023-04-09T16:41:58.264Z,39.58
2023-04-09T16:44:31.405Z,38.57
2023-04-09T16:47:04.790Z,39.08
2023-04-09T16:49:37.765Z,38.58
2023-04-09T16:52:10.706Z,39.34
2023-04-09T16:54:43.782Z,39.65
2023-04-09T16:57:18.080Z,40.02
2023-04-09T16:59:51.147Z,40.87
2023-04-09T17:02:24.702Z,40.98
2023-04-09T17:04:57.987Z,41.74
2023-04-09T17:07:31.036Z,41.03
2023-04-09T17:10:04.170Z,42.62
2023-04-09T17:12:39.257Z,42.48
2023-04-09T17:15:12.769Z,41.81
2023-04-09T17:17:46.407Z,43.10
2023-04-09T17:20:19.648Z,42.67
2023-04-09T17:22:52.769Z,42.57
2023-04-09T17:25:25.776Z,41.88
2023-04-09T17:28:01.543Z,41.47
2023-04-09T17:30:34.779Z,41.08
2023-04-09T17:33:07.857Z,42.07
2023-04-09T17:35:40.898Z,42.36
2023-04-09T17:38:20.449Z,43.05
2023-04-09T17:40:54.592Z,43.65
2023-04-09T17:43:28.966Z,44.31
2023-04-09T17:46:02.812Z,44.53
2023-04-09T17:48:37.480Z,45.18
2023-04-09T17:51:16.395Z,44.50
2023-04-09T17:53:49.379Z,45.16
2023-04-09T17:56:23.515Z,45.46
2023-04-09T17:58:57.842Z,45.73
2023-04-09T18:01:31.051Z,46.58
2023-04-09T18:04:04.408Z,47.17
2023-04-09T18:06:37.720Z,47.10
2023-04-09T18:09:10.933Z,47.99
2023-04-09T18:11:44.092Z,48.81
2023-04-09T18:14:18.466Z,49.55
2023-04-09T18:16:51.750Z,49.70
2023-04-09T18:19:25.403Z,51.24
2023-04-09T18:21:58.397Z,51.70
2023-04-09T18:24:33.537Z,52.77
2023-04-09T18:27:06.678Z,52.48
2023-04-09T18:29:41.508Z,53.94
2023-04-09T18:32:14.677Z,54.43
2023-04-09T18:34:47.856Z,54.89
2023-04-09T18:37:22.061Z,56.27
2023-04-09T18:39:55.248Z,56.37
2023-04-09T18:42:28.332Z,56.17
2023-04-09T18:45:02.812Z,57.58
2023-04-09T18:47:37.153Z,58.04
2023-04-09T18:50:12.418Z,59.27
2023-04-09T18:52:45.682Z,58.73
2023-04-09T18:55:19.210Z,58.47
2023-04-09T18:57:52.634Z,58.89
2023-04-09T19:00:27.182Z,60.33
2023-04-09T19:03:00.510Z,61.28
2023-04-09T19:05:34.140Z,62.37
2023-04-09T19:08:07.817Z,61.97
2023-04-09T19:10:42.252Z,63.28
2023-04-09T19:13:15.407Z,64.46
2023-04-09T19:15:49.803Z,64.59
2023-04-09T19:18:22.826Z,65.95
2023-04-09T19:20:55.862Z,65.75
2023-04-09T19:23:29.826Z,65.94
2023-04-09T19:26:03.884Z,66.58
2023-04-09T19:28:37.647Z,66.80
2023-04-09T19:31:14.288Z,67.00
2023-04-09T19:33:47.407Z,67.46
2023-04-09T19:36:20.812Z,67.71
2023-04-09T19:38:54.033Z,67.23
2023-04-09T19:41:27.301Z,67.63
2023-04-09T19:44:01.206Z,68.08
2023-04-09T19:46:35.753Z,68.51
2023-04-09T19:49:08.701Z,69.21
2023-04-09T19:51:41.802Z,69.38
2023-04-09T19:54:16.503Z,70.31
2023-04-09T19:56:49.660Z,69.93
2023-04-09T19:59:22.561Z,69.99
2023-04-09T20:01:57.283Z,69.95
2023-04-09T20:04:30.944Z,70.23
2023-04-09T20:07:04.649Z,71.55
2023-04-09T20:09:41.270Z,71.70
2023-04-09T20:12:14.348Z,72.60
2023-04-09T20:14:49.335Z,73.08
2023-04-09T20:17:23.782Z,72.84
2023-04-09T20:19:56.733Z,73.81
2023-04-09T20:22:30.141Z,74.05
2023-04-09T20:25:03.177Z,73.64
2023-04-09T20:27:37.549Z,73.62
2023-04-09T20:30:11.502Z,74.70
2023-04-09T20:32:45.949Z,74.64
2023-04-09T20:35:19.413Z,75.32
2023-04-09T20:37:54.310Z,74.68
2023-04-09T20:40:27.320Z,75.09
2023-04-09T20:43:00.570Z,75.62
2023-04-09T20:45:33.702Z,75.95
2023-04-09T20:48:08.276Z,76.20
2023-04-09T20:50:41.318Z,76.23
2023-04-09T20:53:15.248Z,75.80
2023-04-09T20:55:48.217Z,76.52
2023-04-09T20:58:21.264Z,76.21
2023-04-09T21:01:03.713Z,76.49
2023-04-09T21:03:40.180Z,76.63
2023-04-09T21:06:13.374Z,77.11
2023-04-09T21:08:46.348Z,77.20
2023-04-09T21:11:19.309Z,77.33
2023-04-09T21:13:55.117Z,78.38
2023-04-09T21:16:29.791Z,78.80
2023-04-09T21:19:07.072Z,79.11
2023-04-09T21:21:40.399Z,79.65
2023-04-09T21:24:13.459Z,79.03
2023-04-09T21:26:51.665Z,79.97
2023-04-09T21:29:25.362Z,79.08
2023-04-09T21:31:58.376Z,79.75
2023-04-09T21:34:32.785Z,79.95
2023-04-09T21:37:05.749Z,79.99
2023-04-09T21:39:38.768Z,79.86
2023-04-09T21:42:12.006Z,80.17
2023-04-09T21:44:45.023Z,80.71
2023-04-09T21:47:18.103Z,80.21
2023-04-09T21:49:52.397Z,80.63
2023-04-09T21:52:25.451Z,80.51
2023-04-09T21:54:58.392Z,81.05
2023-04-09T21:57:31.445Z,82.14
2023-04-09T22:00:05.448Z,81.39
2023-04-09T22:02:39.638Z,81.53
2023-04-09T22:05:14.387Z,81.27
2023-04-09T22:07:47.344Z,81.98
2023-04-09T22:10:20.540Z,82.17
2023-04-09T22:12:53.518Z,82.25
2023-04-09T22:15:26.711Z,82.65
2023-04-09T22:17:59.775Z,83.08
2023-04-09T22:20:34.130Z,83.34
2023-04-09T22:23:08.595Z,84.35
2023-04-09T22:25:41.541Z,85.46
2023-04-09T22:28:14.751Z,85.60
2023-04-09T22:30:47.826Z,86.77
2023-04-09T22:33:20.978Z,85.94
2023-04-09T22:35:56.142Z,86.81
2023-04-09T22:38:29.242Z,86.26
2023-04-09T22:41:02.369Z,86.39
2023-04-09T22:43:35.377Z,86.14
2023-04-09T22:46:08.481Z,86.05
2023-04-09T22:48:44.895Z,85.98
2023-04-09T22:51:19.588Z,85.80
2023-04-09T22:53:52.549Z,86.07
2023-04-09T22:56:25.547Z,86.22
2023-04-09T22:58:58.516Z,85.99
2023-04-09T23:01:32.516Z,86.52
2023-04-09T23:04:05.823Z,86.70
2023-04-09T23:06:40.501Z,86.76
2023-04-09T23:09:13.465Z,87.09
2023-04-09T23:11:46.414Z,86.71
2023-04-09T23:14:19.471Z,86.78
2023-04-09T23:16:52.440Z,87.09
2023-04-09T23:19:25.455Z,86.63
2023-04-09T23:21:59.758Z,86.10
2023-04-09T23:24:32.745Z,86.04
2023-04-09T23:27:05.762Z,86.27
2023-04-09T23:29:38.719Z,86.24
2023-04-09T23:32:11.697Z,86.63
2023-04-09T23:34:44.647Z,86.76
2023-04-09T23:37:19.883Z,87.30
2023-04-09T23:39:52.885Z,87.28
2023-04-09T23:42:26.219Z,87.48
2023-04-09T23:45:03.282Z,87.39
2023-04-09T23:47:37.555Z,87.41
2023-04-09T23:50:11.527Z,87.57
2023-04-09T23:52:49.743Z,86.94
2023-04-09T23:55:22.881Z,88.63
2023-04-09T23:57:56.524Z,88.29
